Time;durP1;ratioP1;P1;durP2;ratioP2;P2;SDS_P1;SDS_P2;PMS_P1;PMS_P2;Temp;Humidity;BMP_temperature;BMP_pressure;BME280_temperature;BME280_humidity;BME280_pressure;Samples;Min_cycle;Max_cycle;Signal;HPM_P1;HPM_P2
2023/07/10 00:01:25;;;;;;;18.92;9.40;;;19.30;99.90;;;;;;5079695;28;20093;-67
2023/07/10 00:03:52;;;;;;;18.45;9.90;;;19.30;99.90;;;;;;5064974;28;20083;-67
2023/07/10 00:06:17;;;;;;;20.35;10.68;;;19.30;99.90;;;;;;5092563;28;20043;-67
2023/07/10 00:08:43;;;;;;;21.90;11.43;;;19.30;99.90;;;;;;5063213;28;20036;-67
2023/07/10 00:11:35;;;;;;;19.13;10.88;;;19.30;99.90;;;;;;5072197;28;20131;-68
2023/07/10 00:14:03;;;;;;;24.15;11.02;;;19.30;99.90;;;;;;5075447;28;20131;-67
2023/07/10 00:16:29;;;;;;;20.55;11.55;;;19.30;99.90;;;;;;5066497;28;20036;-67
2023/07/10 00:18:55;;;;;;;15.55;10.68;;;19.30;99.90;;;;;;5081399;28;20044;-67
2023/07/10 00:21:20;;;;;;;27.23;11.55;;;19.20;99.90;;;;;;5065301;28;20487;-68
2023/07/10 00:23:47;;;;;;;20.15;10.63;;;19.30;99.90;;;;;;5068242;28;20044;-67
2023/07/10 00:26:21;;;;;;;19.48;10.00;;;19.30;99.90;;;;;;5072752;28;20040;-67
2023/07/10 00:28:49;;;;;;;13.48;8.95;;;19.20;99.90;;;;;;5076977;28;20398;-67
2023/07/10 00:31:15;;;;;;;15.35;9.93;;;19.20;99.90;;;;;;5088772;28;20424;-67
2023/07/10 00:33:41;;;;;;;15.00;9.02;;;19.20;99.90;;;;;;5083336;28;20090;-67
2023/07/10 00:36:19;;;;;;;14.40;8.77;;;19.20;99.90;;;;;;5085818;28;20055;-67
2023/07/10 00:38:44;;;;;;;13.43;8.65;;;19.20;99.90;;;;;;5082512;28;20098;-67
2023/07/10 00:41:12;;;;;;;13.05;8.10;;;19.20;99.90;;;;;;5081568;28;20048;-68
2023/07/10 00:43:52;;;;;;;18.27;9.15;;;19.20;99.90;;;;;;5070171;28;20590;-67
2023/07/10 00:46:50;;;;;;;15.18;9.00;;;19.20;99.90;;;;;;5085598;28;20071;-67
2023/07/10 00:49:18;;;;;;;15.50;8.98;;;19.10;99.90;;;;;;5074137;28;20122;-68
2023/07/10 00:52:04;;;;;;;13.55;8.40;;;19.10;99.90;;;;;;5081298;28;20040;-67
2023/07/10 00:54:37;;;;;;;17.92;9.65;;;19.00;99.90;;;;;;5085547;28;20860;-68
2023/07/10 00:57:12;;;;;;;12.93;8.45;;;19.10;99.90;;;;;;5070731;28;20040;-67
2023/07/10 00:59:40;;;;;;;13.40;8.15;;;19.00;99.90;;;;;;5090177;28;20040;-67
2023/07/10 01:02:12;;;;;;;14.60;8.60;;;19.00;99.90;;;;;;5080474;28;20497;-67
2023/07/10 01:04:41;;;;;;;15.55;7.72;;;19.00;99.90;;;;;;5086558;28;20047;-67
2023/07/10 01:07:10;;;;;;;16.98;8.52;;;19.00;99.90;;;;;;5088099;28;20036;-67
2023/07/10 01:09:36;;;;;;;13.35;8.55;;;19.00;99.90;;;;;;5087172;28;20039;-68
2023/07/10 01:12:04;;;;;;;14.55;8.55;;;19.00;99.90;;;;;;5086230;28;20305;-67
2023/07/10 01:14:34;;;;;;;16.23;8.73;;;19.00;99.90;;;;;;5086581;28;20042;-68
2023/07/10 01:17:06;;;;;;;14.68;9.23;;;19.00;99.90;;;;;;5086016;28;20203;-67
2023/07/10 01:19:33;;;;;;;16.20;8.55;;;19.00;99.90;;;;;;5085308;28;20115;-67
2023/07/10 01:22:00;;;;;;;15.05;9.27;;;19.00;99.90;;;;;;5076298;28;20048;-68
2023/07/10 01:24:26;;;;;;;12.98;8.90;;;19.00;99.90;;;;;;5092198;28;20043;-67
2023/07/10 01:26:52;;;;;;;;;;;19.00;99.90;;;;;;5083106;28;20525;-67
2023/07/10 01:29:26;;;;;;;12.23;8.55;;;18.90;99.90;;;;;;5093232;28;19934;-68
2023/07/10 01:31:54;;;;;;;14.32;9.20;;;18.90;99.90;;;;;;5080564;28;20556;-67
2023/07/10 01:34:27;;;;;;;15.88;9.07;;;18.90;99.90;;;;;;5089042;28;20039;-67
2023/07/10 01:36:54;;;;;;;20.77;9.57;;;19.00;99.90;;;;;;5088207;28;20047;-68
2023/07/10 01:39:36;;;;;;;14.40;9.35;;;18.90;99.90;;;;;;5070452;28;20054;-67
2023/07/10 01:42:02;;;;;;;15.93;9.27;;;18.90;99.90;;;;;;5083638;28;20378;-68
2023/07/10 01:44:32;;;;;;;14.13;8.80;;;18.90;99.90;;;;;;5089620;28;20024;-67
2023/07/10 01:47:00;;;;;;;12.52;7.65;;;18.90;99.90;;;;;;5083969;28;20409;-67
2023/07/10 01:49:33;;;;;;;14.95;8.18;;;18.90;99.90;;;;;;5089903;28;20036;-67
2023/07/10 01:52:02;;;;;;;14.00;7.78;;;18.90;99.90;;;;;;5065017;28;20098;-67
2023/07/10 01:54:27;;;;;;;11.63;7.90;;;18.90;99.90;;;;;;5075567;28;20042;-68
2023/07/10 01:56:53;;;;;;;13.23;6.82;;;18.90;99.90;;;;;;5082656;28;20044;-67
2023/07/10 01:59:19;;;;;;;13.45;6.75;;;18.90;99.90;;;;;;5075858;28;20474;-66
2023/07/10 02:01:46;;;;;;;11.45;6.70;;;18.90;99.90;;;;;;5077158;28;20114;-67
2023/07/10 02:04:11;;;;;;;9.90;6.75;;;18.80;99.90;;;;;;5092736;28;20094;-67
2023/07/10 02:06:39;;;;;;;10.60;6.18;;;18.80;99.90;;;;;;5066377;28;20032;-67
2023/07/10 02:09:06;;;;;;;11.60;6.93;;;18.80;99.90;;;;;;5060566;28;20107;-68
2023/07/10 02:11:34;;;;;;;18.60;6.95;;;18.80;99.90;;;;;;5084302;28;20036;-68
2023/07/10 02:14:03;;;;;;;11.57;6.22;;;18.80;99.90;;;;;;5086855;28;20489;-67
2023/07/10 02:16:29;;;;;;;13.77;7.32;;;18.80;99.90;;;;;;5088169;28;20028;-67
2023/07/10 02:18:54;;;;;;;13.80;7.15;;;18.80;99.90;;;;;;5083538;28;20037;-67
2023/07/10 02:21:20;;;;;;;11.75;6.75;;;18.80;99.90;;;;;;5083831;28;20536;-67
2023/07/10 02:23:47;;;;;;;9.77;6.40;;;18.80;99.90;;;;;;5096031;28;20036;-68
2023/07/10 02:26:14;;;;;;;10.52;6.72;;;18.80;99.90;;;;;;5094111;28;20115;-68
2023/07/10 02:28:40;;;;;;;13.32;6.97;;;18.80;99.90;;;;;;5085941;28;20042;-67
2023/07/10 02:31:07;;;;;;;13.60;7.05;;;18.80;99.90;;;;;;5080827;28;20037;-67
2023/07/10 02:33:33;;;;;;;15.95;7.30;;;18.80;99.90;;;;;;5094605;28;20058;-67
2023/07/10 02:36:00;;;;;;;11.65;6.97;;;18.80;99.90;;;;;;5090861;28;20044;-67
2023/07/10 02:38:26;;;;;;;11.20;7.18;;;18.80;99.90;;;;;;5097352;28;20040;-67
2023/07/10 02:40:52;;;;;;;12.10;7.45;;;18.80;99.90;;;;;;5072931;28;20040;-68
2023/07/10 02:43:18;;;;;;;12.68;6.32;;;18.70;99.90;;;;;;5080378;28;20485;-67
2023/07/10 02:45:44;;;;;;;11.00;6.53;;;18.70;99.90;;;;;;5075904;28;20047;-67
2023/07/10 02:48:10;;;;;;;11.27;6.78;;;18.70;99.90;;;;;;5069688;28;20037;-67
2023/07/10 02:50:36;;;;;;;8.82;6.80;;;18.70;99.90;;;;;;5083214;28;20036;-67
2023/07/10 02:53:01;;;;;;;8.50;6.07;;;18.70;99.90;;;;;;5069885;28;20048;-67
2023/07/10 02:55:27;;;;;;;9.80;5.95;;;18.70;99.90;;;;;;5090903;28;20031;-67
2023/07/10 02:57:53;;;;;;;10.63;6.47;;;18.70;99.90;;;;;;5095804;28;20045;-67
2023/07/10 03:00:19;;;;;;;10.63;6.10;;;18.70;99.90;;;;;;5090691;28;20478;-67
2023/07/10 03:02:44;;;;;;;7.63;5.20;;;18.70;99.90;;;;;;5082329;28;20048;-67
2023/07/10 03:05:10;;;;;;;11.45;5.95;;;18.60;99.90;;;;;;5074012;28;20501;-67
2023/07/10 03:07:36;;;;;;;8.85;5.80;;;18.60;99.90;;;;;;5078102;28;20251;-67
2023/07/10 03:10:02;;;;;;;8.20;5.55;;;18.60;99.90;;;;;;5093414;28;20036;-67
2023/07/10 03:12:28;;;;;;;9.50;4.85;;;18.60;99.90;;;;;;5093750;28;20509;-67
2023/07/10 03:14:54;;;;;;;9.00;5.60;;;18.60;99.90;;;;;;5096392;28;20113;-68
2023/07/10 03:17:19;;;;;;;8.20;4.72;;;18.50;99.90;;;;;;5076397;28;20040;-67
2023/07/10 03:19:49;;;;;;;8.13;4.57;;;18.50;99.90;;;;;;5089899;28;20115;-67
2023/07/10 03:22:15;;;;;;;8.18;3.38;;;18.50;99.90;;;;;;5070736;28;20047;-68
2023/07/10 03:24:41;;;;;;;5.78;2.97;;;18.40;99.90;;;;;;5095026;28;20040;-67
2023/07/10 03:27:07;;;;;;;6.45;3.60;;;18.40;99.90;;;;;;5073011;28;20486;-68
2023/07/10 03:29:35;;;;;;;8.60;3.38;;;18.40;99.90;;;;;;5095324;28;20043;-67
2023/07/10 03:32:00;;;;;;;6.10;3.00;;;18.30;99.90;;;;;;5096442;28;20045;-67
2023/07/10 03:34:26;;;;;;;5.22;2.95;;;18.30;99.90;;;;;;5099419;28;20114;-68
2023/07/10 03:36:53;;;;;;;4.78;2.45;;;18.30;99.90;;;;;;5090743;28;20460;-68
2023/07/10 03:39:19;;;;;;;5.97;2.75;;;18.30;99.90;;;;;;5098319;28;20104;-67
2023/07/10 03:41:44;;;;;;;5.93;3.22;;;18.30;99.90;;;;;;5094531;28;20052;-67
2023/07/10 03:44:10;;;;;;;5.72;2.67;;;18.20;99.90;;;;;;5096548;28;20486;-67
2023/07/10 03:46:36;;;;;;;7.88;3.10;;;18.20;99.90;;;;;;5081583;28;20107;-67
2023/07/10 03:49:03;;;;;;;5.80;3.20;;;18.20;99.90;;;;;;5071040;28;20224;-67
2023/07/10 03:51:29;;;;;;;6.50;3.58;;;18.20;99.90;;;;;;5069421;28;20046;-67
2023/07/10 03:53:54;;;;;;;7.78;3.13;;;18.20;99.90;;;;;;5068807;28;20032;-67
2023/07/10 03:56:20;;;;;;;6.05;3.45;;;18.20;99.90;;;;;;5061099;28;20130;-67
2023/07/10 03:58:46;;;;;;;4.93;3.13;;;18.20;99.90;;;;;;5092316;28;20097;-67
2023/07/10 04:01:12;;;;;;;;;;;18.10;99.90;;;;;;5074818;28;20105;-67
2023/07/10 04:03:39;;;;;;;6.38;3.60;;;18.10;99.90;;;;;;5086033;28;20347;-67
2023/07/10 04:06:06;;;;;;;8.98;3.70;;;18.10;99.90;;;;;;5088721;28;20510;-67
2023/07/10 04:08:40;;;;;;;5.20;3.13;;;18.20;99.90;;;;;;5074791;28;20044;-67
2023/07/10 04:11:21;;;;;;;6.43;2.97;;;18.20;99.90;;;;;;5076808;28;20040;-67
2023/07/10 04:13:48;;;;;;;4.75;2.67;;;18.20;99.90;;;;;;5073802;28;20058;-67
2023/07/10 04:16:16;;;;;;;7.32;2.95;;;18.20;99.90;;;;;;5075046;28;20036;-68
2023/07/10 04:18:43;;;;;;;3.72;2.47;;;18.20;99.90;;;;;;5077591;28;20142;-69
2023/07/10 04:21:11;;;;;;;4.18;2.63;;;18.20;99.90;;;;;;5086068;28;20115;-67
2023/07/10 04:23:37;;;;;;;4.07;2.22;;;18.20;99.90;;;;;;5062318;28;20266;-69
2023/07/10 04:26:03;;;;;;;5.50;2.40;;;18.20;99.90;;;;;;5068563;28;20279;-67
2023/07/10 04:28:29;;;;;;;6.20;2.20;;;18.20;99.90;;;;;;5081297;28;20481;-67
2023/07/10 04:30:54;;;;;;;5.22;1.70;;;18.20;99.90;;;;;;5058511;28;20068;-69
2023/07/10 04:33:20;;;;;;;5.18;2.15;;;18.20;99.90;;;;;;5080486;28;20043;-70
2023/07/10 04:35:57;;;;;;;3.03;1.63;;;18.20;99.90;;;;;;5079763;28;20526;-68
2023/07/10 04:38:27;;;;;;;3.38;1.70;;;18.20;99.90;;;;;;5072909;28;20130;-68
2023/07/10 04:40:58;;;;;;;3.25;1.52;;;18.20;99.90;;;;;;5096227;28;20514;-71
2023/07/10 04:43:26;;;;;;;7.43;2.00;;;18.10;99.90;;;;;;5075398;28;20046;-68
2023/07/10 04:45:56;;;;;;;2.58;1.55;;;18.20;99.90;;;;;;5086386;28;20062;-67
2023/07/10 04:48:23;;;;;;;4.45;1.60;;;18.20;99.90;;;;;;5094643;28;20392;-69
2023/07/10 04:50:51;;;;;;;4.32;1.80;;;18.10;99.90;;;;;;5100088;28;20048;-71
2023/07/10 04:53:18;;;;;;;5.90;2.08;;;18.10;99.90;;;;;;5088505;28;20493;-67
2023/07/10 04:55:46;;;;;;;4.60;2.05;;;18.10;99.90;;;;;;5092498;28;20039;-70
2023/07/10 04:58:12;;;;;;;3.35;1.98;;;18.10;99.90;;;;;;5075723;28;20116;-69
2023/07/10 05:00:38;;;;;;;4.53;1.98;;;18.10;99.90;;;;;;5070759;28;20228;-67
2023/07/10 05:03:05;;;;;;;5.72;1.70;;;18.10;99.90;;;;;;5084443;28;20343;-68
2023/07/10 05:05:31;;;;;;;5.00;1.65;;;18.20;99.90;;;;;;5096464;28;20063;-69
2023/07/10 05:07:57;;;;;;;5.22;2.25;;;18.20;99.90;;;;;;5058110;28;20089;-69
2023/07/10 05:10:23;;;;;;;5.13;2.05;;;18.20;99.90;;;;;;5079400;28;20040;-68
2023/07/10 05:12:50;;;;;;;5.05;2.10;;;18.30;99.90;;;;;;5068699;28;20540;-68
2023/07/10 05:15:15;;;;;;;;;;;18.20;99.90;;;;;;5095885;28;20054;-68
2023/07/10 05:17:42;;;;;;;4.13;2.00;;;18.30;99.90;;;;;;5090269;28;19916;-68
2023/07/10 05:20:09;;;;;;;5.03;1.90;;;18.30;99.90;;;;;;5071063;28;20048;-68
2023/07/10 05:22:36;;;;;;;5.53;1.85;;;18.30;99.90;;;;;;5067022;28;20048;-68
2023/07/10 05:25:02;;;;;;;4.65;1.85;;;18.30;99.90;;;;;;5073125;28;20067;-68
2023/07/10 05:27:27;;;;;;;4.70;1.67;;;18.40;99.90;;;;;;5099741;28;20116;-68
2023/07/10 05:29:53;;;;;;;5.63;1.90;;;18.30;99.90;;;;;;5088450;28;20055;-68
2023/07/10 05:32:19;;;;;;;9.65;2.33;;;18.30;99.90;;;;;;5096570;28;20450;-68
2023/07/10 05:34:46;;;;;;;6.28;2.10;;;18.30;99.90;;;;;;5075884;28;20075;-68
2023/07/10 05:37:11;;;;;;;3.88;1.92;;;18.30;99.90;;;;;;5072965;28;20397;-68
2023/07/10 05:39:37;;;;;;;4.35;1.65;;;18.30;99.90;;;;;;5067228;28;20119;-68
2023/07/10 05:42:03;;;;;;;5.00;1.77;;;18.30;99.90;;;;;;5100484;28;20035;-68
2023/07/10 05:44:29;;;;;;;5.70;1.88;;;18.30;99.90;;;;;;5076803;28;20035;-68
2023/07/10 05:46:55;;;;;;;10.55;2.63;;;18.30;99.90;;;;;;5071897;28;20116;-68
2023/07/10 05:49:23;;;;;;;8.30;2.30;;;18.30;99.90;;;;;;5070969;28;20050;-68
2023/07/10 05:51:50;;;;;;;6.18;2.70;;;18.30;99.90;;;;;;5077789;28;20112;-68
2023/07/10 05:54:16;;;;;;;5.20;1.90;;;18.30;99.90;;;;;;5091986;28;20046;-68
2023/07/10 05:56:42;;;;;;;7.38;2.20;;;18.40;99.90;;;;;;5099183;28;20099;-68
2023/07/10 05:59:11;;;;;;;6.55;2.08;;;18.40;99.90;;;;;;5059408;28;20045;-68
2023/07/10 06:01:37;;;;;;;4.93;2.15;;;18.40;99.90;;;;;;5082823;28;20346;-68
2023/07/10 06:04:03;;;;;;;5.00;2.13;;;18.40;99.90;;;;;;5071510;28;20045;-68
2023/07/10 06:06:29;;;;;;;6.25;2.15;;;18.50;99.90;;;;;;5097664;28;20150;-68
2023/07/10 06:08:55;;;;;;;7.68;2.22;;;18.50;99.90;;;;;;5088912;28;20111;-68
2023/07/10 06:11:20;;;;;;;6.78;2.00;;;18.50;99.90;;;;;;5071534;28;20047;-67
2023/07/10 06:13:46;;;;;;;7.97;2.13;;;18.50;99.90;;;;;;5096904;28;20036;-68
2023/07/10 06:16:14;;;;;;;6.38;2.42;;;18.60;99.90;;;;;;5081253;28;20548;-68
2023/07/10 06:18:40;;;;;;;5.32;2.13;;;18.60;99.90;;;;;;5103780;28;20050;-68
2023/07/10 06:21:07;;;;;;;5.25;2.10;;;18.70;99.90;;;;;;5072859;28;20040;-68
2023/07/10 06:23:33;;;;;;;7.82;2.70;;;18.70;99.90;;;;;;5099362;28;20039;-68
2023/07/10 06:25:59;;;;;;;5.47;2.10;;;18.80;99.90;;;;;;5080189;28;20441;-68
2023/07/10 06:28:25;;;;;;;;;;;18.80;99.90;;;;;;5073098;28;20054;-68
2023/07/10 06:30:56;;;;;;;3.65;1.33;;;18.80;99.90;;;;;;5090861;28;19920;-68
2023/07/10 06:33:22;;;;;;;9.57;1.85;;;18.90;99.90;;;;;;5080815;28;20040;-68
2023/07/10 06:35:47;;;;;;;;;;;18.90;99.90;;;;;;5106295;28;20165;-68
2023/07/10 06:38:13;;;;;;;7.47;1.52;;;18.90;99.90;;;;;;5096879;28;19999;-68
2023/07/10 06:40:39;;;;;;;6.57;1.35;;;18.90;99.90;;;;;;5080361;28;20035;-68
2023/07/10 06:43:04;;;;;;;7.32;1.33;;;19.00;99.90;;;;;;5098187;28;20040;-68
2023/07/10 06:45:30;;;;;;;5.43;1.52;;;19.00;99.90;;;;;;5096666;28;20039;-68
2023/07/10 06:47:56;;;;;;;9.23;1.67;;;19.10;99.90;;;;;;5099449;28;20040;-68
2023/07/10 06:50:21;;;;;;;6.13;1.67;;;19.10;99.90;;;;;;5084814;28;20393;-68
2023/07/10 06:52:47;;;;;;;3.55;1.38;;;19.10;99.90;;;;;;5081967;28;20046;-67
2023/07/10 06:55:16;;;;;;;6.32;1.45;;;19.20;99.90;;;;;;5099026;28;20443;-68
2023/07/10 06:57:43;;;;;;;7.20;1.50;;;19.30;99.90;;;;;;5071004;28;20455;-68
2023/07/10 07:00:12;;;;;;;3.08;1.13;;;19.30;99.90;;;;;;5097674;28;20047;-68
2023/07/10 07:02:38;;;;;;;4.40;1.20;;;19.40;99.90;;;;;;5070706;28;20168;-68
2023/07/10 07:05:05;;;;;;;4.00;1.65;;;19.40;99.90;;;;;;5089969;28;20090;-68
2023/07/10 07:07:31;;;;;;;4.70;1.75;;;19.40;99.90;;;;;;5082263;28;20386;-68
2023/07/10 07:09:57;;;;;;;3.72;1.23;;;19.50;99.90;;;;;;5080761;28;20051;-68
2023/07/10 07:12:23;;;;;;;6.97;1.83;;;19.50;99.90;;;;;;5082988;28;20065;-68
2023/07/10 07:14:48;;;;;;;4.93;1.70;;;19.50;99.90;;;;;;5098824;28;20067;-68
2023/07/10 07:17:14;;;;;;;5.82;1.83;;;19.60;99.90;;;;;;5087926;28;20134;-68
2023/07/10 07:19:45;;;;;;;7.85;1.70;;;19.60;99.90;;;;;;5072021;28;20114;-68
2023/07/10 07:22:12;;;;;;;4.28;1.88;;;19.60;99.90;;;;;;5075706;28;20394;-68
2023/07/10 07:24:38;;;;;;;8.48;1.73;;;19.70;99.90;;;;;;5095429;28;20040;-68
2023/07/10 07:27:04;;;;;;;5.40;1.38;;;19.70;99.90;;;;;;5082527;28;20036;-68
2023/07/10 07:29:30;;;;;;;6.35;1.73;;;19.80;99.90;;;;;;5084148;28;20039;-68
2023/07/10 07:31:55;;;;;;;4.47;1.70;;;19.80;99.90;;;;;;5081585;28;20044;-68
2023/07/10 07:34:21;;;;;;;4.95;1.50;;;19.90;99.90;;;;;;5086841;28;20035;-68
2023/07/10 07:36:52;;;;;;;8.32;1.80;;;19.90;99.90;;;;;;5085525;28;20039;-68
2023/07/10 07:39:20;;;;;;;6.40;2.17;;;20.00;99.90;;;;;;5097122;28;20498;-68
2023/07/10 07:41:47;;;;;;;6.82;1.90;;;20.10;99.90;;;;;;5094492;28;20048;-68
2023/07/10 07:44:12;;;;;;;;;;;20.10;99.90;;;;;;5102446;28;20048;-68
2023/07/10 07:46:38;;;;;;;5.13;1.27;;;20.10;99.90;;;;;;5088663;28;19917;-68
2023/07/10 07:49:04;;;;;;;5.60;2.00;;;20.10;99.90;;;;;;5095367;28;20048;-68
2023/07/10 07:51:30;;;;;;;6.45;1.67;;;20.30;99.90;;;;;;5103675;28;20512;-68
2023/07/10 07:54:03;;;;;;;;;;;20.30;99.90;;;;;;5093001;28;20056;-68
2023/07/10 07:56:29;;;;;;;6.32;1.92;;;20.30;99.90;;;;;;5102724;28;19916;-68
2023/07/10 07:58:54;;;;;;;7.38;2.10;;;20.40;99.90;;;;;;5085408;28;20043;-68
2023/07/10 08:01:20;;;;;;;4.05;1.63;;;20.40;99.90;;;;;;5068769;28;20573;-68
2023/07/10 08:03:46;;;;;;;10.18;2.15;;;20.40;99.90;;;;;;5086433;28;20032;-68
2023/07/10 08:06:12;;;;;;;4.55;1.55;;;20.40;99.90;;;;;;5084593;28;20036;-68
2023/07/10 08:08:37;;;;;;;5.60;1.70;;;20.40;99.90;;;;;;5102130;28;20537;-67
2023/07/10 08:11:05;;;;;;;3.60;1.50;;;20.50;99.90;;;;;;5082391;28;20149;-68
2023/07/10 08:13:31;;;;;;;4.03;1.60;;;20.60;99.90;;;;;;5107648;28;20325;-68
2023/07/10 08:15:57;;;;;;;4.13;1.73;;;20.60;99.90;;;;;;5102098;28;20035;-68
2023/07/10 08:18:23;;;;;;;9.30;1.42;;;20.70;99.90;;;;;;5097032;28;20397;-68
2023/07/10 08:20:48;;;;;;;6.00;1.73;;;20.80;99.90;;;;;;5097612;28;20397;-68
2023/07/10 08:23:16;;;;;;;7.75;2.17;;;20.80;99.90;;;;;;5095803;28;20052;-68
2023/07/10 08:25:41;;;;;;;9.93;1.90;;;20.90;99.90;;;;;;5102281;28;20040;-69
2023/07/10 08:28:07;;;;;;;7.35;2.08;;;20.90;99.90;;;;;;5083901;28;20094;-68
2023/07/10 08:30:33;;;;;;;3.28;1.50;;;21.00;99.90;;;;;;5101463;28;20040;-68
2023/07/10 08:32:59;;;;;;;5.75;2.08;;;21.00;99.90;;;;;;5089630;28;20054;-68
2023/07/10 08:35:24;;;;;;;8.07;2.58;;;21.10;99.90;;;;;;5085826;28;20035;-68
2023/07/10 08:37:50;;;;;;;7.43;2.35;;;21.10;99.90;;;;;;5091646;28;20043;-68
2023/07/10 08:40:20;;;;;;;;;;;21.20;99.90;;;;;;5079551;28;20568;-68
2023/07/10 08:42:47;;;;;;;8.73;2.10;;;21.20;99.90;;;;;;5088689;28;20366;-68
2023/07/10 08:45:17;;;;;;;;;;;21.30;99.90;;;;;;5099168;28;20050;-68
2023/07/10 08:47:48;;;;;;;7.68;2.53;;;21.40;99.90;;;;;;5104654;28;19919;-68
2023/07/10 08:50:22;;;;;;;9.90;3.60;;;21.40;99.90;;;;;;5084145;28;20063;-68
2023/07/10 08:53:09;;;;;;;9.88;2.92;;;21.50;99.90;;;;;;5098383;28;20047;-68
2023/07/10 08:55:55;;;;;;;8.25;2.33;;;21.50;99.90;;;;;;5104736;28;20066;-68
2023/07/10 08:58:24;;;;;;;9.63;2.42;;;21.60;99.90;;;;;;5087494;28;20072;-68
2023/07/10 09:00:56;;;;;;;8.98;2.63;;;21.70;99.90;;;;;;5076779;28;20127;-68
2023/07/10 09:03:49;;;;;;;7.95;1.42;;;21.80;99.90;;;;;;5079542;28;20040;-68
2023/07/10 09:06:30;;;;;;;8.48;2.10;;;21.80;99.90;;;;;;5086879;28;20113;-68
2023/07/10 09:08:57;;;;;;;9.50;2.63;;;21.90;99.90;;;;;;5094442;28;20033;-68
2023/07/10 09:11:24;;;;;;;7.75;2.03;;;22.00;99.90;;;;;;5106768;28;20047;-68
2023/07/10 09:14:06;;;;;;;6.38;1.70;;;22.00;99.90;;;;;;5085281;28;20048;-68
2023/07/10 09:16:32;;;;;;;7.05;2.72;;;22.10;99.90;;;;;;5075250;28;20099;-68
2023/07/10 09:19:12;;;;;;;;;;;22.10;99.90;;;;;;5091141;28;20122;-68
2023/07/10 09:21:40;;;;;;;10.57;2.30;;;22.20;99.90;;;;;;5087607;28;20346;-68
2023/07/10 09:24:16;;;;;;;10.20;2.22;;;22.30;99.90;;;;;;5066242;28;20088;-68
2023/07/10 09:26:42;;;;;;;9.38;2.05;;;22.30;99.90;;;;;;5078895;28;20043;-68
2023/07/10 09:29:10;;;;;;;;;;;22.30;99.90;;;;;;5104324;28;20070;-68
2023/07/10 09:32:00;;;;;;;4.28;1.50;;;22.40;99.90;;;;;;5099964;28;19916;-68
2023/07/10 09:34:32;;;;;;;5.75;1.85;;;22.50;99.90;;;;;;5090324;28;20043;-68
2023/07/10 09:36:59;;;;;;;8.95;2.10;;;22.50;99.90;;;;;;5102559;28;20044;-68
2023/07/10 09:39:27;;;;;;;10.43;2.88;;;22.50;99.90;;;;;;5086996;28;20147;-68
2023/07/10 09:41:53;;;;;;;5.30;2.03;;;22.50;99.90;;;;;;5101112;28;20158;-67
2023/07/10 09:44:20;;;;;;;;;;;22.50;99.90;;;;;;5105472;28;20126;-68
2023/07/10 09:46:47;;;;;;;5.57;1.70;;;22.50;99.90;;;;;;5087062;28;20089;-67
2023/07/10 09:49:16;;;;;;;9.57;1.98;;;22.50;99.90;;;;;;5084931;28;20516;-68
2023/07/10 09:51:56;;;;;;;7.35;2.13;;;22.50;99.90;;;;;;5079182;28;20050;-68
2023/07/10 09:54:22;;;;;;;6.70;1.95;;;22.50;99.90;;;;;;5065320;28;20036;-68
2023/07/10 09:56:50;;;;;;;7.47;1.80;;;22.60;99.90;;;;;;5099398;28;20046;-68
2023/07/10 09:59:27;;;;;;;8.65;2.00;;;22.70;99.90;;;;;;5071521;28;20054;-68
2023/07/10 10:01:54;;;;;;;5.07;1.80;;;22.80;99.90;;;;;;5088913;28;20481;-68
2023/07/10 10:04:26;;;;;;;7.97;1.85;;;22.90;99.90;;;;;;5089600;28;20075;-68
2023/07/10 10:07:04;;;;;;;3.88;1.90;;;23.00;99.90;;;;;;5095258;28;20516;-68
2023/07/10 10:09:31;;;;;;;8.45;1.80;;;23.20;99.90;;;;;;5074867;28;20047;-68
2023/07/10 10:12:34;;;;;;;8.00;1.90;;;23.30;99.90;;;;;;5086392;28;20378;-68
2023/07/10 10:15:07;;;;;;;10.23;1.85;;;23.40;99.90;;;;;;4985286;28;20135;-68
2023/07/10 10:17:39;;;;;;;12.02;2.72;;;23.40;99.90;;;;;;5079159;28;20051;-68
2023/07/10 10:20:29;;;;;;;13.32;2.03;;;23.40;99.90;;;;;;5087371;28;20047;-68
2023/07/10 10:22:55;;;;;;;8.75;1.83;;;23.20;99.90;;;;;;5087062;28;20039;-68
2023/07/10 10:25:33;;;;;;;6.93;2.00;;;23.20;99.90;;;;;;5094679;28;20563;-68
2023/07/10 10:28:48;;;;;;;6.30;2.08;;;23.30;99.90;;;;;;5084041;28;20047;-68
2023/07/10 10:31:18;;;;;;;9.88;2.20;;;23.30;99.90;;;;;;5053484;28;20045;-68
2023/07/10 10:33:54;;;;;;;9.98;2.47;;;23.30;99.90;;;;;;5096329;28;20032;-68
2023/07/10 10:36:44;;;;;;;8.32;1.98;;;23.20;99.90;;;;;;5088794;28;20071;-68
2023/07/10 10:39:24;;;;;;;6.38;1.38;;;23.20;99.90;;;;;;5086783;28;20051;-68
2023/07/10 10:41:54;;;;;;;6.20;1.50;;;23.30;99.90;;;;;;5067582;28;20476;-68
2023/07/10 10:44:44;;;;;;;9.02;2.60;;;23.40;99.90;;;;;;5088614;28;20040;-68
2023/07/10 10:47:25;;;;;;;8.70;2.05;;;23.50;99.90;;;;;;5086984;28;20051;-68
2023/07/10 10:50:28;;;;;;;13.88;2.38;;;23.40;99.90;;;;;;5081691;28;20047;-68
2023/07/10 10:53:21;;;;;;;5.22;1.70;;;23.30;99.90;;;;;;5073897;28;20042;-68
2023/07/10 10:56:03;;;;;;;5.10;1.70;;;23.10;99.90;;;;;;5079554;28;20036;-68
2023/07/10 10:58:32;;;;;;;11.77;2.63;;;23.10;99.90;;;;;;5064830;28;20047;-68
2023/07/10 11:01:07;;;;;;;6.90;1.95;;;23.10;99.90;;;;;;5064990;28;20486;-68
2023/07/10 11:03:42;;;;;;;5.00;1.42;;;23.00;99.90;;;;;;5090590;28;20077;-68
2023/07/10 11:06:34;;;;;;;9.52;1.58;;;23.00;99.90;;;;;;5080356;28;20119;-68
2023/07/10 11:09:11;;;;;;;9.15;2.08;;;23.20;99.90;;;;;;5087496;28;20127;-68
2023/07/10 11:11:39;;;;;;;9.43;1.50;;;23.30;99.90;;;;;;5111104;28;20055;-68
2023/07/10 11:14:06;;;;;;;11.95;1.77;;;23.20;99.90;;;;;;5091724;28;20050;-68
2023/07/10 11:16:33;;;;;;;7.90;2.15;;;23.20;99.90;;;;;;5079746;28;20089;-68
2023/07/10 11:19:01;;;;;;;5.63;1.70;;;23.20;99.90;;;;;;5088928;28;20048;-68
2023/07/10 11:21:28;;;;;;;8.70;1.73;;;23.20;99.90;;;;;;5092358;28;20044;-68
2023/07/10 11:23:54;;;;;;;3.83;1.20;;;23.20;99.90;;;;;;5071382;28;20378;-68
2023/07/10 11:26:27;;;;;;;;;;;23.20;99.90;;;;;;5111293;28;20062;-68
2023/07/10 11:28:58;;;;;;;4.57;1.38;;;23.10;99.90;;;;;;5093870;28;19919;-68
2023/07/10 11:31:31;;;;;;;4.80;1.38;;;23.10;99.90;;;;;;5073176;28;20043;-68
2023/07/10 11:34:05;;;;;;;6.03;1.50;;;23.20;99.90;;;;;;5085256;28;20047;-68
2023/07/10 11:36:36;;;;;;;4.78;1.63;;;23.20;99.90;;;;;;5099139;28;20081;-68
2023/07/10 11:39:11;;;;;;;5.63;1.40;;;23.20;99.90;;;;;;5081928;28;20047;-68
2023/07/10 11:41:38;;;;;;;5.85;1.30;;;23.20;99.90;;;;;;5058332;28;20043;-69
2023/07/10 11:44:32;;;;;;;5.60;1.40;;;23.20;99.90;;;;;;5068662;28;20047;-68
2023/07/10 11:47:00;;;;;;;3.88;1.38;;;23.10;99.90;;;;;;5070774;28;20246;-68
2023/07/10 11:49:35;;;;;;;6.75;1.88;;;23.10;99.90;;;;;;5078353;28;20124;-68
2023/07/10 11:52:13;;;;;;;5.63;1.40;;;23.10;99.90;;;;;;5065443;28;20078;-68
2023/07/10 11:55:00;;;;;;;5.07;1.00;;;23.20;99.90;;;;;;5060958;28;20402;-68
2023/07/10 11:57:28;;;;;;;3.30;1.08;;;23.20;99.90;;;;;;5073261;28;20040;-68
2023/07/10 11:59:57;;;;;;;5.93;1.38;;;23.20;99.90;;;;;;5056244;28;20041;-68
2023/07/10 12:02:38;;;;;;;4.68;0.90;;;23.30;99.90;;;;;;5059987;28;20086;-68
2023/07/10 12:05:25;;;;;;;3.60;1.20;;;23.50;99.90;;;;;;5050653;28;20040;-68
2023/07/10 12:08:12;;;;;;;5.57;1.17;;;23.50;99.90;;;;;;5067546;28;20048;-67
2023/07/10 12:10:45;;;;;;;5.85;1.27;;;23.50;99.90;;;;;;5077933;28;20070;-68
2023/07/10 12:13:20;;;;;;;3.83;0.70;;;23.50;99.90;;;;;;5071299;28;20093;-68
2023/07/10 12:15:47;;;;;;;6.85;0.98;;;23.60;99.90;;;;;;5052225;28;20040;-68
2023/07/10 12:18:18;;;;;;;5.20;1.20;;;23.70;99.90;;;;;;5081312;28;20122;-68
2023/07/10 12:20:49;;;;;;;4.75;1.23;;;23.90;99.90;;;;;;5075256;28;20045;-68
2023/07/10 12:23:15;;;;;;;5.05;0.70;;;24.00;99.90;;;;;;5052567;28;20406;-68
2023/07/10 12:26:15;;;;;;;2.58;0.73;;;24.10;99.90;;;;;;5052754;28;20045;-68
2023/07/10 12:28:43;;;;;;;4.28;0.50;;;24.20;99.90;;;;;;5052659;28;20052;-68
2023/07/10 12:31:12;;;;;;;2.00;0.60;;;24.30;99.90;;;;;;5056365;28;20037;-68
2023/07/10 12:33:42;;;;;;;4.63;0.75;;;24.40;98.40;;;;;;5071711;28;20041;-68
2023/07/10 12:36:27;;;;;;;3.40;0.70;;;24.40;96.90;;;;;;5080755;28;20048;-68
2023/07/10 12:38:56;;;;;;;3.60;0.88;;;24.40;88.30;;;;;;5078908;28;20068;-68
2023/07/10 12:41:23;;;;;;;3.03;0.80;;;24.40;92.90;;;;;;5052456;28;20036;-68
2023/07/10 12:43:52;;;;;;;3.17;0.80;;;24.40;93.60;;;;;;5071156;28;20636;-68
2023/07/10 12:46:27;;;;;;;4.82;1.17;;;24.50;94.20;;;;;;5079592;28;20083;-68
2023/07/10 12:49:10;;;;;;;5.00;0.80;;;24.60;94.00;;;;;;5050843;28;20451;-68
2023/07/10 12:51:38;;;;;;;6.55;0.82;;;24.70;93.80;;;;;;5057587;28;20059;-68
2023/07/10 12:54:24;;;;;;;2.35;0.80;;;24.70;93.60;;;;;;5074159;28;20066;-68
2023/07/10 12:56:55;;;;;;;2.53;0.40;;;24.60;84.90;;;;;;5078703;28;20039;-68
2023/07/10 12:59:42;;;;;;;6.57;1.15;;;24.60;90.30;;;;;;5061647;28;21740;-68
2023/07/10 13:02:26;;;;;;;3.88;0.73;;;24.70;90.40;;;;;;5079934;28;20049;-68